sensor_id;sensor_type;location;lat;lon;timestamp;temperature;humidity
65046;DHT22;54657;52.022;5.534;2022-10-16T00:00:44;14.10;82.40
65046;DHT22;54657;52.022;5.534;2022-10-16T00:03:10;14.10;82.50
65046;DHT22;54657;52.022;5.534;2022-10-16T00:05:42;14.10;82.40
65046;DHT22;54657;52.022;5.534;2022-10-16T00:08:10;14.10;82.40
65046;DHT22;54657;52.022;5.534;2022-10-16T00:10:35;14.10;82.40
65046;DHT22;54657;52.022;5.534;2022-10-16T00:13:01;14.00;82.50
65046;DHT22;54657;52.022;5.534;2022-10-16T00:15:27;14.00;82.50
65046;DHT22;54657;52.022;5.534;2022-10-16T00:17:53;14.00;82.50
65046;DHT22;54657;52.022;5.534;2022-10-16T00:20:18;14.00;82.50
65046;DHT22;54657;52.022;5.534;2022-10-16T00:22:44;14.10;82.50
65046;DHT22;54657;52.022;5.534;2022-10-16T00:25:09;14.00;82.40
65046;DHT22;54657;52.022;5.534;2022-10-16T00:27:35;14.10;82.50
65046;DHT22;54657;52.022;5.534;2022-10-16T00:30:00;14.10;82.40
65046;DHT22;54657;52.022;5.534;2022-10-16T00:32:26;14.10;82.40
65046;DHT22;54657;52.022;5.534;2022-10-16T00:34:52;14.10;82.40
65046;DHT22;54657;52.022;5.534;2022-10-16T00:37:20;14.10;82.40
65046;DHT22;54657;52.022;5.534;2022-10-16T00:39:45;14.10;82.30
65046;DHT22;54657;52.022;5.534;2022-10-16T00:42:16;14.10;82.40
65046;DHT22;54657;52.022;5.534;2022-10-16T00:44:55;14.10;82.40
65046;DHT22;54657;52.022;5.534;2022-10-16T00:47:31;14.10;82.40
65046;DHT22;54657;52.022;5.534;2022-10-16T00:50:28;14.20;82.30
65046;DHT22;54657;52.022;5.534;2022-10-16T00:52:56;14.10;82.10
65046;DHT22;54657;52.022;5.534;2022-10-16T00:55:22;14.10;82.60
65046;DHT22;54657;52.022;5.534;2022-10-16T00:57:49;14.10;82.60
65046;DHT22;54657;52.022;5.534;2022-10-16T01:00:19;14.10;82.60
65046;DHT22;54657;52.022;5.534;2022-10-16T01:02:52;14.20;82.70
65046;DHT22;54657;52.022;5.534;2022-10-16T01:05:18;14.10;82.50
65046;DHT22;54657;52.022;5.534;2022-10-16T01:08:08;14.20;82.60
65046;DHT22;54657;52.022;5.534;2022-10-16T01:10:54;14.20;82.50
65046;DHT22;54657;52.022;5.534;2022-10-16T01:13:33;14.20;82.50
65046;DHT22;54657;52.022;5.534;2022-10-16T01:16:19;14.20;82.60
65046;DHT22;54657;52.022;5.534;2022-10-16T01:19:16;14.20;82.50
65046;DHT22;54657;52.022;5.534;2022-10-16T01:21:46;14.30;82.40
65046;DHT22;54657;52.022;5.534;2022-10-16T01:27:02;14.20;82.60
65046;DHT22;54657;52.022;5.534;2022-10-16T01:29:42;14.30;82.70
65046;DHT22;54657;52.022;5.534;2022-10-16T01:32:33;14.30;82.80
65046;DHT22;54657;52.022;5.534;2022-10-16T01:40:19;14.30;82.90
65046;DHT22;54657;52.022;5.534;2022-10-16T01:42:55;14.30;82.90
65046;DHT22;54657;52.022;5.534;2022-10-16T01:45:21;14.30;82.90
65046;DHT22;54657;52.022;5.534;2022-10-16T01:47:49;14.40;82.80
65046;DHT22;54657;52.022;5.534;2022-10-16T01:50:16;14.40;82.70
65046;DHT22;54657;52.022;5.534;2022-10-16T01:52:45;14.40;82.70
65046;DHT22;54657;52.022;5.534;2022-10-16T01:55:17;14.40;82.70
65046;DHT22;54657;52.022;5.534;2022-10-16T01:57:45;14.40;82.70
65046;DHT22;54657;52.022;5.534;2022-10-16T02:00:13;14.40;82.70
65046;DHT22;54657;52.022;5.534;2022-10-16T02:02:41;14.40;82.80
65046;DHT22;54657;52.022;5.534;2022-10-16T02:05:30;14.40;82.80
65046;DHT22;54657;52.022;5.534;2022-10-16T02:07:59;14.40;82.80
65046;DHT22;54657;52.022;5.534;2022-10-16T02:10:25;14.40;83.00
65046;DHT22;54657;52.022;5.534;2022-10-16T02:12:58;14.40;83.00
65046;DHT22;54657;52.022;5.534;2022-10-16T02:15:24;14.40;83.00
65046;DHT22;54657;52.022;5.534;2022-10-16T02:17:50;14.40;83.00
65046;DHT22;54657;52.022;5.534;2022-10-16T02:20:16;14.40;83.00
65046;DHT22;54657;52.022;5.534;2022-10-16T02:22:47;14.40;83.10
65046;DHT22;54657;52.022;5.534;2022-10-16T02:25:22;14.40;83.10
65046;DHT22;54657;52.022;5.534;2022-10-16T02:28:00;14.40;83.20
65046;DHT22;54657;52.022;5.534;2022-10-16T02:30:32;14.40;83.30
65046;DHT22;54657;52.022;5.534;2022-10-16T02:32:59;14.40;83.30
65046;DHT22;54657;52.022;5.534;2022-10-16T02:35:26;14.40;83.30
65046;DHT22;54657;52.022;5.534;2022-10-16T02:37:53;14.40;83.30
65046;DHT22;54657;52.022;5.534;2022-10-16T02:40:19;14.40;83.30
65046;DHT22;54657;52.022;5.534;2022-10-16T02:42:50;14.40;83.30
65046;DHT22;54657;52.022;5.534;2022-10-16T02:45:16;14.40;83.30
65046;DHT22;54657;52.022;5.534;2022-10-16T02:47:42;14.40;83.30
65046;DHT22;54657;52.022;5.534;2022-10-16T02:50:07;14.40;83.30
65046;DHT22;54657;52.022;5.534;2022-10-16T02:52:33;14.40;83.30
65046;DHT22;54657;52.022;5.534;2022-10-16T02:54:59;14.40;83.40
65046;DHT22;54657;52.022;5.534;2022-10-16T02:57:24;14.40;83.50
65046;DHT22;54657;52.022;5.534;2022-10-16T02:59:50;14.40;83.50
65046;DHT22;54657;52.022;5.534;2022-10-16T03:02:15;14.40;83.60
65046;DHT22;54657;52.022;5.534;2022-10-16T03:04:41;14.40;83.70
65046;DHT22;54657;52.022;5.534;2022-10-16T03:07:07;14.40;83.70
65046;DHT22;54657;52.022;5.534;2022-10-16T03:09:33;14.40;83.70
65046;DHT22;54657;52.022;5.534;2022-10-16T03:11:59;14.30;83.60
65046;DHT22;54657;52.022;5.534;2022-10-16T03:14:24;14.30;83.70
65046;DHT22;54657;52.022;5.534;2022-10-16T03:16:50;14.30;83.80
65046;DHT22;54657;52.022;5.534;2022-10-16T03:19:18;14.30;83.70
65046;DHT22;54657;52.022;5.534;2022-10-16T03:21:44;14.30;83.80
65046;DHT22;54657;52.022;5.534;2022-10-16T03:24:10;14.30;83.80
65046;DHT22;54657;52.022;5.534;2022-10-16T03:26:36;14.40;83.70
65046;DHT22;54657;52.022;5.534;2022-10-16T03:29:01;14.40;83.70
65046;DHT22;54657;52.022;5.534;2022-10-16T03:31:29;14.30;83.70
65046;DHT22;54657;52.022;5.534;2022-10-16T03:33:54;14.40;83.70
65046;DHT22;54657;52.022;5.534;2022-10-16T03:36:20;14.40;83.70
65046;DHT22;54657;52.022;5.534;2022-10-16T03:38:45;14.30;83.70
65046;DHT22;54657;52.022;5.534;2022-10-16T03:41:11;14.30;83.80
65046;DHT22;54657;52.022;5.534;2022-10-16T03:43:36;14.30;84.40
65046;DHT22;54657;52.022;5.534;2022-10-16T03:46:02;14.30;83.90
65046;DHT22;54657;52.022;5.534;2022-10-16T03:48:28;14.30;84.00
65046;DHT22;54657;52.022;5.534;2022-10-16T03:50:53;14.30;84.00
65046;DHT22;54657;52.022;5.534;2022-10-16T03:53:20;14.30;84.00
65046;DHT22;54657;52.022;5.534;2022-10-16T03:55:46;14.30;84.00
65046;DHT22;54657;52.022;5.534;2022-10-16T03:58:12;14.30;84.00
65046;DHT22;54657;52.022;5.534;2022-10-16T04:00:41;14.20;84.00
65046;DHT22;54657;52.022;5.534;2022-10-16T04:03:07;14.30;84.00
65046;DHT22;54657;52.022;5.534;2022-10-16T04:05:32;14.30;83.90
65046;DHT22;54657;52.022;5.534;2022-10-16T04:07:58;14.30;83.90
65046;DHT22;54657;52.022;5.534;2022-10-16T04:10:23;14.20;83.90
65046;DHT22;54657;52.022;5.534;2022-10-16T04:12:49;14.20;83.90
65046;DHT22;54657;52.022;5.534;2022-10-16T04:15:15;14.20;83.80
65046;DHT22;54657;52.022;5.534;2022-10-16T04:17:40;14.20;83.90
65046;DHT22;54657;52.022;5.534;2022-10-16T04:20:06;14.20;84.00
65046;DHT22;54657;52.022;5.534;2022-10-16T04:22:32;14.20;83.90
65046;DHT22;54657;52.022;5.534;2022-10-16T04:24:57;14.20;83.90
65046;DHT22;54657;52.022;5.534;2022-10-16T04:27:23;14.20;84.00
65046;DHT22;54657;52.022;5.534;2022-10-16T04:29:48;14.20;84.00
65046;DHT22;54657;52.022;5.534;2022-10-16T04:32:14;14.20;84.10
65046;DHT22;54657;52.022;5.534;2022-10-16T04:34:39;14.20;84.20
65046;DHT22;54657;52.022;5.534;2022-10-16T04:37:05;14.10;84.10
65046;DHT22;54657;52.022;5.534;2022-10-16T04:39:31;14.10;84.10
65046;DHT22;54657;52.022;5.534;2022-10-16T04:41:56;14.10;84.20
65046;DHT22;54657;52.022;5.534;2022-10-16T04:44:22;14.00;84.30
65046;DHT22;54657;52.022;5.534;2022-10-16T04:46:50;14.10;84.40
65046;DHT22;54657;52.022;5.534;2022-10-16T04:49:16;14.10;84.30
65046;DHT22;54657;52.022;5.534;2022-10-16T04:51:41;14.00;84.20
65046;DHT22;54657;52.022;5.534;2022-10-16T04:54:08;14.00;84.30
65046;DHT22;54657;52.022;5.534;2022-10-16T04:56:33;14.00;84.40
65046;DHT22;54657;52.022;5.534;2022-10-16T04:59:05;14.00;84.40
65046;DHT22;54657;52.022;5.534;2022-10-16T05:01:31;14.00;85.00
65046;DHT22;54657;52.022;5.534;2022-10-16T05:03:56;14.00;84.40
65046;DHT22;54657;52.022;5.534;2022-10-16T05:06:22;13.90;84.40
65046;DHT22;54657;52.022;5.534;2022-10-16T05:08:47;14.00;84.30
65046;DHT22;54657;52.022;5.534;2022-10-16T05:11:13;14.00;84.30
65046;DHT22;54657;52.022;5.534;2022-10-16T05:13:38;14.00;84.40
65046;DHT22;54657;52.022;5.534;2022-10-16T05:16:04;14.00;84.40
65046;DHT22;54657;52.022;5.534;2022-10-16T05:18:29;14.00;84.40
65046;DHT22;54657;52.022;5.534;2022-10-16T05:20:55;13.90;84.40
65046;DHT22;54657;52.022;5.534;2022-10-16T05:23:20;13.90;84.30
65046;DHT22;54657;52.022;5.534;2022-10-16T05:25:54;13.80;84.50
65046;DHT22;54657;52.022;5.534;2022-10-16T05:28:20;13.90;84.70
65046;DHT22;54657;52.022;5.534;2022-10-16T05:30:45;13.80;84.70
65046;DHT22;54657;52.022;5.534;2022-10-16T05:33:11;13.90;84.60
65046;DHT22;54657;52.022;5.534;2022-10-16T05:35:37;13.80;84.60
65046;DHT22;54657;52.022;5.534;2022-10-16T05:38:02;13.80;84.70
65046;DHT22;54657;52.022;5.534;2022-10-16T05:40:28;13.80;84.80
65046;DHT22;54657;52.022;5.534;2022-10-16T05:42:56;13.80;84.80
65046;DHT22;54657;52.022;5.534;2022-10-16T05:45:22;13.80;84.70
65046;DHT22;54657;52.022;5.534;2022-10-16T05:47:47;13.80;84.80
65046;DHT22;54657;52.022;5.534;2022-10-16T05:50:13;13.80;84.80
65046;DHT22;54657;52.022;5.534;2022-10-16T05:52:39;13.80;85.20
65046;DHT22;54657;52.022;5.534;2022-10-16T05:55:05;13.70;84.90
65046;DHT22;54657;52.022;5.534;2022-10-16T05:57:30;13.80;84.90
65046;DHT22;54657;52.022;5.534;2022-10-16T05:59:56;13.80;84.90
65046;DHT22;54657;52.022;5.534;2022-10-16T06:02:22;13.80;85.00
65046;DHT22;54657;52.022;5.534;2022-10-16T06:04:47;13.80;85.60
65046;DHT22;54657;52.022;5.534;2022-10-16T06:07:13;13.80;85.20
65046;DHT22;54657;52.022;5.534;2022-10-16T06:09:38;13.80;85.00
65046;DHT22;54657;52.022;5.534;2022-10-16T06:12:04;13.80;84.90
65046;DHT22;54657;52.022;5.534;2022-10-16T06:14:30;13.90;84.90
65046;DHT22;54657;52.022;5.534;2022-10-16T06:16:55;13.90;84.90
65046;DHT22;54657;52.022;5.534;2022-10-16T06:19:21;13.90;84.90
65046;DHT22;54657;52.022;5.534;2022-10-16T06:21:46;13.90;85.00
65046;DHT22;54657;52.022;5.534;2022-10-16T06:24:12;13.90;84.80
65046;DHT22;54657;52.022;5.534;2022-10-16T06:26:37;13.90;85.00
65046;DHT22;54657;52.022;5.534;2022-10-16T06:29:03;14.00;85.00
65046;DHT22;54657;52.022;5.534;2022-10-16T06:31:29;14.00;85.00
65046;DHT22;54657;52.022;5.534;2022-10-16T06:33:56;13.90;84.90
65046;DHT22;54657;52.022;5.534;2022-10-16T06:36:22;14.00;84.90
65046;DHT22;54657;52.022;5.534;2022-10-16T06:38:48;14.00;84.80
65046;DHT22;54657;52.022;5.534;2022-10-16T06:41:16;14.00;84.90
65046;DHT22;54657;52.022;5.534;2022-10-16T06:43:42;14.10;85.00
65046;DHT22;54657;52.022;5.534;2022-10-16T06:46:11;14.00;84.80
65046;DHT22;54657;52.022;5.534;2022-10-16T06:48:37;14.00;84.80
65046;DHT22;54657;52.022;5.534;2022-10-16T06:51:20;14.10;84.80
65046;DHT22;54657;52.022;5.534;2022-10-16T06:53:46;14.10;84.90
65046;DHT22;54657;52.022;5.534;2022-10-16T06:56:25;14.10;85.90
65046;DHT22;54657;52.022;5.534;2022-10-16T06:58:52;14.10;85.80
65046;DHT22;54657;52.022;5.534;2022-10-16T07:01:20;14.10;84.90
65046;DHT22;54657;52.022;5.534;2022-10-16T07:03:46;14.20;84.70
65046;DHT22;54657;52.022;5.534;2022-10-16T07:06:15;14.20;84.70
65046;DHT22;54657;52.022;5.534;2022-10-16T07:08:43;14.20;84.70
65046;DHT22;54657;52.022;5.534;2022-10-16T07:11:11;14.30;84.80
65046;DHT22;54657;52.022;5.534;2022-10-16T07:13:38;14.30;84.70
65046;DHT22;54657;52.022;5.534;2022-10-16T07:16:05;14.30;84.70
65046;DHT22;54657;52.022;5.534;2022-10-16T07:18:32;14.40;84.60
65046;DHT22;54657;52.022;5.534;2022-10-16T07:21:09;14.40;84.80
65046;DHT22;54657;52.022;5.534;2022-10-16T07:23:38;14.40;84.70
65046;DHT22;54657;52.022;5.534;2022-10-16T07:26:04;14.40;84.60
65046;DHT22;54657;52.022;5.534;2022-10-16T07:28:30;14.40;84.40
65046;DHT22;54657;52.022;5.534;2022-10-16T07:31:03;14.50;84.50
65046;DHT22;54657;52.022;5.534;2022-10-16T07:33:29;14.50;84.60
65046;DHT22;54657;52.022;5.534;2022-10-16T07:35:55;14.50;84.60
65046;DHT22;54657;52.022;5.534;2022-10-16T07:38:22;14.50;84.50
65046;DHT22;54657;52.022;5.534;2022-10-16T07:40:47;14.60;84.50
65046;DHT22;54657;52.022;5.534;2022-10-16T07:43:14;14.60;84.50
65046;DHT22;54657;52.022;5.534;2022-10-16T07:45:47;14.60;84.60
65046;DHT22;54657;52.022;5.534;2022-10-16T07:48:15;14.70;84.80
65046;DHT22;54657;52.022;5.534;2022-10-16T07:50:41;14.60;84.50
65046;DHT22;54657;52.022;5.534;2022-10-16T07:53:06;14.70;84.50
65046;DHT22;54657;52.022;5.534;2022-10-16T07:55:32;14.70;84.40
65046;DHT22;54657;52.022;5.534;2022-10-16T07:57:58;14.70;84.40
65046;DHT22;54657;52.022;5.534;2022-10-16T08:00:23;14.80;84.30
65046;DHT22;54657;52.022;5.534;2022-10-16T08:02:49;14.80;84.20
65046;DHT22;54657;52.022;5.534;2022-10-16T08:05:15;14.80;84.10
65046;DHT22;54657;52.022;5.534;2022-10-16T08:07:40;14.80;84.10
65046;DHT22;54657;52.022;5.534;2022-10-16T08:10:06;14.80;84.10
65046;DHT22;54657;52.022;5.534;2022-10-16T08:12:32;14.90;84.10
65046;DHT22;54657;52.022;5.534;2022-10-16T08:14:57;14.90;84.10
65046;DHT22;54657;52.022;5.534;2022-10-16T08:17:23;14.90;84.00
65046;DHT22;54657;52.022;5.534;2022-10-16T08:19:48;14.90;84.10
65046;DHT22;54657;52.022;5.534;2022-10-16T08:22:14;14.90;84.10
65046;DHT22;54657;52.022;5.534;2022-10-16T08:24:40;15.00;84.20
65046;DHT22;54657;52.022;5.534;2022-10-16T08:27:06;15.00;83.90
65046;DHT22;54657;52.022;5.534;2022-10-16T08:29:35;15.00;83.90
65046;DHT22;54657;52.022;5.534;2022-10-16T08:32:01;15.10;84.40
65046;DHT22;54657;52.022;5.534;2022-10-16T08:34:26;15.20;83.80
65046;DHT22;54657;52.022;5.534;2022-10-16T08:36:55;15.30;83.70
65046;DHT22;54657;52.022;5.534;2022-10-16T08:39:21;15.30;83.50
65046;DHT22;54657;52.022;5.534;2022-10-16T08:45:07;15.40;82.90
65046;DHT22;54657;52.022;5.534;2022-10-16T08:48:00;15.50;83.00
65046;DHT22;54657;52.022;5.534;2022-10-16T08:50:32;15.50;82.30
65046;DHT22;54657;52.022;5.534;2022-10-16T08:53:17;15.60;82.90
65046;DHT22;54657;52.022;5.534;2022-10-16T08:55:54;15.70;82.60
65046;DHT22;54657;52.022;5.534;2022-10-16T08:58:22;15.70;82.30
65046;DHT22;54657;52.022;5.534;2022-10-16T09:16:53;16.10;80.80
65046;DHT22;54657;52.022;5.534;2022-10-16T09:19:36;16.20;81.60
65046;DHT22;54657;52.022;5.534;2022-10-16T09:22:12;16.30;80.20
65046;DHT22;54657;52.022;5.534;2022-10-16T09:27:46;16.40;80.70
65046;DHT22;54657;52.022;5.534;2022-10-16T09:30:19;16.50;81.20
65046;DHT22;54657;52.022;5.534;2022-10-16T09:32:48;16.60;80.80
65046;DHT22;54657;52.022;5.534;2022-10-16T09:35:38;16.60;80.70
65046;DHT22;54657;52.022;5.534;2022-10-16T09:38:22;16.70;80.80
65046;DHT22;54657;52.022;5.534;2022-10-16T09:40:48;16.80;79.90
65046;DHT22;54657;52.022;5.534;2022-10-16T09:47:12;16.90;79.40
65046;DHT22;54657;52.022;5.534;2022-10-16T09:50:05;17.00;80.20
65046;DHT22;54657;52.022;5.534;2022-10-16T09:55:54;17.10;78.50
65046;DHT22;54657;52.022;5.534;2022-10-16T09:58:23;17.10;79.80
65046;DHT22;54657;52.022;5.534;2022-10-16T10:01:11;17.20;79.30
65046;DHT22;54657;52.022;5.534;2022-10-16T10:03:44;17.20;79.10
65046;DHT22;54657;52.022;5.534;2022-10-16T10:06:20;17.20;79.30
65046;DHT22;54657;52.022;5.534;2022-10-16T10:08:58;17.30;78.40
65046;DHT22;54657;52.022;5.534;2022-10-16T10:11:51;17.30;78.70
65046;DHT22;54657;52.022;5.534;2022-10-16T10:14:23;17.30;77.90
65046;DHT22;54657;52.022;5.534;2022-10-16T10:16:50;17.30;79.20
65046;DHT22;54657;52.022;5.534;2022-10-16T10:19:23;17.40;78.80
65046;DHT22;54657;52.022;5.534;2022-10-16T10:21:50;17.40;77.60
65046;DHT22;54657;52.022;5.534;2022-10-16T10:24:18;17.40;78.80
65046;DHT22;54657;52.022;5.534;2022-10-16T10:27:08;17.40;78.30
65046;DHT22;54657;52.022;5.534;2022-10-16T10:32:36;17.60;77.70
65046;DHT22;54657;52.022;5.534;2022-10-16T10:43:48;17.60;77.00
65046;DHT22;54657;52.022;5.534;2022-10-16T10:46:41;17.60;77.50
65046;DHT22;54657;52.022;5.534;2022-10-16T10:50:10;17.50;75.10
65046;DHT22;54657;52.022;5.534;2022-10-16T10:55:18;17.80;77.50
65046;DHT22;54657;52.022;5.534;2022-10-16T11:06:15;18.00;76.10
65046;DHT22;54657;52.022;5.534;2022-10-16T11:08:53;18.10;74.40
65046;DHT22;54657;52.022;5.534;2022-10-16T11:11:31;18.10;73.60
65046;DHT22;54657;52.022;5.534;2022-10-16T11:16:32;18.20;75.20
65046;DHT22;54657;52.022;5.534;2022-10-16T11:21:53;18.30;73.20
65046;DHT22;54657;52.022;5.534;2022-10-16T11:24:26;18.30;74.60
65046;DHT22;54657;52.022;5.534;2022-10-16T11:27:01;18.30;74.60
65046;DHT22;54657;52.022;5.534;2022-10-16T11:29:32;18.40;73.80
65046;DHT22;54657;52.022;5.534;2022-10-16T11:32:18;18.40;73.70
65046;DHT22;54657;52.022;5.534;2022-10-16T11:34:49;18.40;73.40
65046;DHT22;54657;52.022;5.534;2022-10-16T11:37:41;18.50;73.50
65046;DHT22;54657;52.022;5.534;2022-10-16T11:40:30;18.40;73.00
65046;DHT22;54657;52.022;5.534;2022-10-16T11:43:07;18.30;71.10
65046;DHT22;54657;52.022;5.534;2022-10-16T11:45:46;18.20;74.20
65046;DHT22;54657;52.022;5.534;2022-10-16T11:48:33;18.20;73.60
65046;DHT22;54657;52.022;5.534;2022-10-16T11:51:31;18.10;71.60
65046;DHT22;54657;52.022;5.534;2022-10-16T11:56:48;18.10;73.40
65046;DHT22;54657;52.022;5.534;2022-10-16T11:59:24;18.10;74.00
65046;DHT22;54657;52.022;5.534;2022-10-16T12:02:07;18.20;73.40
65046;DHT22;54657;52.022;5.534;2022-10-16T12:04:48;18.30;73.40
65046;DHT22;54657;52.022;5.534;2022-10-16T12:07:27;18.30;71.40
65046;DHT22;54657;52.022;5.534;2022-10-16T12:09:56;18.30;72.50
65046;DHT22;54657;52.022;5.534;2022-10-16T12:12:28;18.20;73.30
65046;DHT22;54657;52.022;5.534;2022-10-16T12:17:46;18.30;69.50
65046;DHT22;54657;52.022;5.534;2022-10-16T12:22:41;18.40;72.90
65046;DHT22;54657;52.022;5.534;2022-10-16T12:25:32;18.50;72.50
65046;DHT22;54657;52.022;5.534;2022-10-16T12:30:38;18.50;71.50
65046;DHT22;54657;52.022;5.534;2022-10-16T12:33:23;18.50;72.30
65046;DHT22;54657;52.022;5.534;2022-10-16T12:35:49;18.60;71.10
65046;DHT22;54657;52.022;5.534;2022-10-16T12:41:01;18.70;70.60
65046;DHT22;54657;52.022;5.534;2022-10-16T12:43:36;18.70;71.10
65046;DHT22;54657;52.022;5.534;2022-10-16T12:46:33;18.80;71.50
65046;DHT22;54657;52.022;5.534;2022-10-16T12:51:40;18.80;68.80
65046;DHT22;54657;52.022;5.534;2022-10-16T12:54:15;18.80;70.90
65046;DHT22;54657;52.022;5.534;2022-10-16T13:14:07;19.00;66.70
65046;DHT22;54657;52.022;5.534;2022-10-16T13:16:50;19.00;70.00
65046;DHT22;54657;52.022;5.534;2022-10-16T13:19:29;19.00;67.90
65046;DHT22;54657;52.022;5.534;2022-10-16T13:30:16;18.90;68.00
65046;DHT22;54657;52.022;5.534;2022-10-16T13:32:53;19.00;69.10
65046;DHT22;54657;52.022;5.534;2022-10-16T13:35:32;18.90;68.60
65046;DHT22;54657;52.022;5.534;2022-10-16T13:40:36;19.00;69.40
65046;DHT22;54657;52.022;5.534;2022-10-16T13:43:02;19.00;69.90
65046;DHT22;54657;52.022;5.534;2022-10-16T13:45:27;18.90;69.70
65046;DHT22;54657;52.022;5.534;2022-10-16T13:48:04;18.90;69.60
65046;DHT22;54657;52.022;5.534;2022-10-16T13:50:33;19.00;68.80
65046;DHT22;54657;52.022;5.534;2022-10-16T13:53:13;18.90;69.50
65046;DHT22;54657;52.022;5.534;2022-10-16T13:55:39;19.00;68.50
65046;DHT22;54657;52.022;5.534;2022-10-16T13:58:14;19.00;69.20
65046;DHT22;54657;52.022;5.534;2022-10-16T14:00:56;19.00;68.80
65046;DHT22;54657;52.022;5.534;2022-10-16T14:03:33;19.00;69.10
65046;DHT22;54657;52.022;5.534;2022-10-16T14:06:04;18.90;69.40
65046;DHT22;54657;52.022;5.534;2022-10-16T14:08:32;18.90;69.30
65046;DHT22;54657;52.022;5.534;2022-10-16T14:10:59;19.00;69.70
65046;DHT22;54657;52.022;5.534;2022-10-16T14:13:34;18.90;69.50
65046;DHT22;54657;52.022;5.534;2022-10-16T14:16:09;19.00;69.30
65046;DHT22;54657;52.022;5.534;2022-10-16T14:18:37;19.00;69.60
65046;DHT22;54657;52.022;5.534;2022-10-16T14:21:12;18.90;69.40
65046;DHT22;54657;52.022;5.534;2022-10-16T14:23:40;19.00;69.10
65046;DHT22;54657;52.022;5.534;2022-10-16T14:26:17;19.00;69.50
65046;DHT22;54657;52.022;5.534;2022-10-16T14:28:44;19.00;68.80
65046;DHT22;54657;52.022;5.534;2022-10-16T14:31:27;19.00;69.50
65046;DHT22;54657;52.022;5.534;2022-10-16T14:33:53;19.00;68.60
65046;DHT22;54657;52.022;5.534;2022-10-16T14:36:19;19.00;69.40
65046;DHT22;54657;52.022;5.534;2022-10-16T14:38:57;19.00;69.40
65046;DHT22;54657;52.022;5.534;2022-10-16T14:41:24;19.10;68.60
65046;DHT22;54657;52.022;5.534;2022-10-16T14:43:54;19.10;69.60
65046;DHT22;54657;52.022;5.534;2022-10-16T15:28:14;18.90;70.00
65046;DHT22;54657;52.022;5.534;2022-10-16T15:31:10;18.80;70.10
65046;DHT22;54657;52.022;5.534;2022-10-16T15:33:45;18.80;69.80
65046;DHT22;54657;52.022;5.534;2022-10-16T15:36:31;18.80;70.30
65046;DHT22;54657;52.022;5.534;2022-10-16T15:39:18;18.90;70.10
65046;DHT22;54657;52.022;5.534;2022-10-16T15:41:47;18.80;70.10
65046;DHT22;54657;52.022;5.534;2022-10-16T15:44:29;18.80;70.50
65046;DHT22;54657;52.022;5.534;2022-10-16T15:46:58;18.70;70.20
65046;DHT22;54657;52.022;5.534;2022-10-16T15:49:42;18.70;70.70
65046;DHT22;54657;52.022;5.534;2022-10-16T15:52:07;18.60;70.60
65046;DHT22;54657;52.022;5.534;2022-10-16T15:54:41;18.60;71.00
65046;DHT22;54657;52.022;5.534;2022-10-16T15:57:21;18.60;70.70
65046;DHT22;54657;52.022;5.534;2022-10-16T16:00:01;18.50;70.80
65046;DHT22;54657;52.022;5.534;2022-10-16T16:02:35;18.40;71.30
65046;DHT22;54657;52.022;5.534;2022-10-16T16:05:15;18.30;71.40
65046;DHT22;54657;52.022;5.534;2022-10-16T16:07:40;18.30;71.60
65046;DHT22;54657;52.022;5.534;2022-10-16T16:10:12;18.30;71.80
65046;DHT22;54657;52.022;5.534;2022-10-16T16:12:52;18.20;71.80
65046;DHT22;54657;52.022;5.534;2022-10-16T16:15:43;18.20;72.00
65046;DHT22;54657;52.022;5.534;2022-10-16T16:18:15;18.20;71.80
65046;DHT22;54657;52.022;5.534;2022-10-16T16:21:00;18.10;72.30
65046;DHT22;54657;52.022;5.534;2022-10-16T16:23:41;18.10;72.10
65046;DHT22;54657;52.022;5.534;2022-10-16T16:26:23;18.00;72.80
65046;DHT22;54657;52.022;5.534;2022-10-16T16:29:01;18.00;72.80
65046;DHT22;54657;52.022;5.534;2022-10-16T16:31:46;18.00;73.00
65046;DHT22;54657;52.022;5.534;2022-10-16T16:34:15;17.90;72.80
65046;DHT22;54657;52.022;5.534;2022-10-16T16:37:08;17.90;73.20
65046;DHT22;54657;52.022;5.534;2022-10-16T16:45:14;17.70;73.70
65046;DHT22;54657;52.022;5.534;2022-10-16T16:47:47;17.70;73.80
65046;DHT22;54657;52.022;5.534;2022-10-16T16:53:14;17.70;74.00
65046;DHT22;54657;52.022;5.534;2022-10-16T16:58:31;17.60;74.40
65046;DHT22;54657;52.022;5.534;2022-10-16T17:04:17;17.50;74.70
65046;DHT22;54657;52.022;5.534;2022-10-16T17:06:44;17.40;74.90
65046;DHT22;54657;52.022;5.534;2022-10-16T17:09:10;17.30;74.90
65046;DHT22;54657;52.022;5.534;2022-10-16T17:11:38;17.30;75.10
65046;DHT22;54657;52.022;5.534;2022-10-16T17:14:07;17.30;75.10
65046;DHT22;54657;52.022;5.534;2022-10-16T17:16:35;17.30;75.10
65046;DHT22;54657;52.022;5.534;2022-10-16T17:19:05;17.20;75.30
65046;DHT22;54657;52.022;5.534;2022-10-16T17:21:31;17.30;75.40
65046;DHT22;54657;52.022;5.534;2022-10-16T17:23:58;17.30;75.40
65046;DHT22;54657;52.022;5.534;2022-10-16T17:26:24;17.20;75.40
65046;DHT22;54657;52.022;5.534;2022-10-16T17:28:55;17.10;75.60
65046;DHT22;54657;52.022;5.534;2022-10-16T17:31:23;17.10;75.70
65046;DHT22;54657;52.022;5.534;2022-10-16T17:33:49;17.10;75.80
65046;DHT22;54657;52.022;5.534;2022-10-16T17:36:16;17.10;75.80
65046;DHT22;54657;52.022;5.534;2022-10-16T17:38:42;17.10;75.80
65046;DHT22;54657;52.022;5.534;2022-10-16T17:41:12;17.00;75.90
65046;DHT22;54657;52.022;5.534;2022-10-16T17:43:38;17.00;76.10
65046;DHT22;54657;52.022;5.534;2022-10-16T17:46:04;17.00;76.10
65046;DHT22;54657;52.022;5.534;2022-10-16T17:48:29;17.00;76.10
65046;DHT22;54657;52.022;5.534;2022-10-16T17:50:55;16.90;76.10
65046;DHT22;54657;52.022;5.534;2022-10-16T17:53:20;16.80;76.20
65046;DHT22;54657;52.022;5.534;2022-10-16T17:55:46;16.90;76.50
65046;DHT22;54657;52.022;5.534;2022-10-16T17:58:11;16.80;76.40
65046;DHT22;54657;52.022;5.534;2022-10-16T18:00:37;16.90;76.40
65046;DHT22;54657;52.022;5.534;2022-10-16T18:03:03;16.90;76.30
65046;DHT22;54657;52.022;5.534;2022-10-16T18:05:28;16.90;76.50
65046;DHT22;54657;52.022;5.534;2022-10-16T18:07:54;16.80;76.60
65046;DHT22;54657;52.022;5.534;2022-10-16T18:10:19;16.80;76.70
65046;DHT22;54657;52.022;5.534;2022-10-16T18:12:45;16.70;76.80
65046;DHT22;54657;52.022;5.534;2022-10-16T18:15:10;16.70;76.80
65046;DHT22;54657;52.022;5.534;2022-10-16T18:17:36;16.70;76.70
65046;DHT22;54657;52.022;5.534;2022-10-16T18:20:04;16.80;76.70
65046;DHT22;54657;52.022;5.534;2022-10-16T18:22:34;16.70;76.70
65046;DHT22;54657;52.022;5.534;2022-10-16T18:25:06;16.70;76.80
65046;DHT22;54657;52.022;5.534;2022-10-16T18:27:32;16.60;77.10
65046;DHT22;54657;52.022;5.534;2022-10-16T18:29:59;16.60;77.00
65046;DHT22;54657;52.022;5.534;2022-10-16T18:32:25;16.50;76.90
65046;DHT22;54657;52.022;5.534;2022-10-16T18:34:51;16.50;76.90
65046;DHT22;54657;52.022;5.534;2022-10-16T18:37:17;16.50;76.90